sensor_id;sensor_type;location;lat;lon;timestamp;P1;durP1;ratioP1;P2;durP2;ratioP2
8803;SDS011;4438;50.890;4.726;2023-04-06T00:01:12;16.30;;;12.67;;
8803;SDS011;4438;50.890;4.726;2023-04-06T00:03:38;14.73;;;12.53;;
8803;SDS011;4438;50.890;4.726;2023-04-06T00:06:05;15.77;;;12.80;;
8803;SDS011;4438;50.890;4.726;2023-04-06T00:08:31;15.20;;;12.70;;
8803;SDS011;4438;50.890;4.726;2023-04-06T00:10:57;17.07;;;13.37;;
8803;SDS011;4438;50.890;4.726;2023-04-06T00:13:23;18.33;;;14.10;;
8803;SDS011;4438;50.890;4.726;2023-04-06T00:15:49;17.13;;;13.67;;
8803;SDS011;4438;50.890;4.726;2023-04-06T00:18:15;16.33;;;13.70;;
8803;SDS011;4438;50.890;4.726;2023-04-06T00:20:41;18.07;;;13.77;;
8803;SDS011;4438;50.890;4.726;2023-04-06T00:23:07;17.60;;;13.80;;
8803;SDS011;4438;50.890;4.726;2023-04-06T00:25:33;15.53;;;13.17;;
8803;SDS011;4438;50.890;4.726;2023-04-06T00:27:59;15.93;;;12.77;;
8803;SDS011;4438;50.890;4.726;2023-04-06T00:30:26;16.20;;;12.77;;
8803;SDS011;4438;50.890;4.726;2023-04-06T00:32:52;17.23;;;12.90;;
8803;SDS011;4438;50.890;4.726;2023-04-06T00:35:18;16.17;;;12.23;;
8803;SDS011;4438;50.890;4.726;2023-04-06T00:37:46;17.30;;;13.50;;
8803;SDS011;4438;50.890;4.726;2023-04-06T00:40:13;16.43;;;12.67;;
8803;SDS011;4438;50.890;4.726;2023-04-06T00:42:40;16.90;;;13.20;;
8803;SDS011;4438;50.890;4.726;2023-04-06T00:45:06;16.20;;;13.07;;
8803;SDS011;4438;50.890;4.726;2023-04-06T00:47:33;16.03;;;12.73;;
8803;SDS011;4438;50.890;4.726;2023-04-06T00:49:59;17.23;;;13.17;;
8803;SDS011;4438;50.890;4.726;2023-04-06T00:52:25;16.27;;;13.23;;
8803;SDS011;4438;50.890;4.726;2023-04-06T00:54:51;15.60;;;12.40;;
8803;SDS011;4438;50.890;4.726;2023-04-06T00:57:17;15.40;;;12.93;;
8803;SDS011;4438;50.890;4.726;2023-04-06T00:59:44;15.40;;;12.47;;
8803;SDS011;4438;50.890;4.726;2023-04-06T01:02:10;15.40;;;12.33;;
8803;SDS011;4438;50.890;4.726;2023-04-06T01:04:36;17.33;;;12.93;;
8803;SDS011;4438;50.890;4.726;2023-04-06T01:07:03;15.43;;;12.67;;
8803;SDS011;4438;50.890;4.726;2023-04-06T01:09:29;16.27;;;13.23;;
8803;SDS011;4438;50.890;4.726;2023-04-06T01:11:58;16.27;;;12.37;;
8803;SDS011;4438;50.890;4.726;2023-04-06T01:14:25;19.30;;;13.87;;
8803;SDS011;4438;50.890;4.726;2023-04-06T01:16:52;16.67;;;13.03;;
8803;SDS011;4438;50.890;4.726;2023-04-06T01:19:18;16.27;;;13.30;;
8803;SDS011;4438;50.890;4.726;2023-04-06T01:21:46;15.43;;;12.00;;
8803;SDS011;4438;50.890;4.726;2023-04-06T01:24:14;14.87;;;11.63;;
8803;SDS011;4438;50.890;4.726;2023-04-06T01:26:40;15.33;;;12.57;;
8803;SDS011;4438;50.890;4.726;2023-04-06T01:29:06;16.63;;;13.00;;
8803;SDS011;4438;50.890;4.726;2023-04-06T01:31:32;15.43;;;12.30;;
8803;SDS011;4438;50.890;4.726;2023-04-06T01:33:58;18.17;;;13.03;;
8803;SDS011;4438;50.890;4.726;2023-04-06T01:36:24;16.40;;;12.90;;
8803;SDS011;4438;50.890;4.726;2023-04-06T01:38:50;14.63;;;12.10;;
8803;SDS011;4438;50.890;4.726;2023-04-06T01:41:16;18.10;;;12.00;;
8803;SDS011;4438;50.890;4.726;2023-04-06T01:43:44;17.83;;;12.77;;
8803;SDS011;4438;50.890;4.726;2023-04-06T01:46:10;18.87;;;13.30;;
8803;SDS011;4438;50.890;4.726;2023-04-06T01:48:36;15.10;;;12.03;;
8803;SDS011;4438;50.890;4.726;2023-04-06T01:51:02;14.63;;;12.47;;
8803;SDS011;4438;50.890;4.726;2023-04-06T01:53:28;15.30;;;11.97;;
8803;SDS011;4438;50.890;4.726;2023-04-06T01:55:54;15.43;;;12.43;;
8803;SDS011;4438;50.890;4.726;2023-04-06T01:58:21;18.57;;;13.33;;
8803;SDS011;4438;50.890;4.726;2023-04-06T02:00:47;15.73;;;12.97;;
8803;SDS011;4438;50.890;4.726;2023-04-06T02:03:13;14.83;;;12.13;;
8803;SDS011;4438;50.890;4.726;2023-04-06T02:05:40;16.57;;;12.93;;
8803;SDS011;4438;50.890;4.726;2023-04-06T02:08:06;15.27;;;12.50;;
8803;SDS011;4438;50.890;4.726;2023-04-06T02:10:33;14.80;;;12.30;;
8803;SDS011;4438;50.890;4.726;2023-04-06T02:12:59;14.90;;;12.30;;
8803;SDS011;4438;50.890;4.726;2023-04-06T02:15:26;14.40;;;12.33;;
8803;SDS011;4438;50.890;4.726;2023-04-06T02:17:52;16.43;;;12.60;;
8803;SDS011;4438;50.890;4.726;2023-04-06T02:20:18;14.50;;;12.03;;
8803;SDS011;4438;50.890;4.726;2023-04-06T02:22:45;14.93;;;11.57;;
8803;SDS011;4438;50.890;4.726;2023-04-06T02:25:11;15.27;;;11.60;;
8803;SDS011;4438;50.890;4.726;2023-04-06T02:27:37;15.67;;;12.67;;
8803;SDS011;4438;50.890;4.726;2023-04-06T02:30:03;14.97;;;12.50;;
8803;SDS011;4438;50.890;4.726;2023-04-06T02:32:29;15.40;;;12.00;;
8803;SDS011;4438;50.890;4.726;2023-04-06T02:34:56;16.93;;;13.23;;
8803;SDS011;4438;50.890;4.726;2023-04-06T02:37:22;15.60;;;12.20;;
8803;SDS011;4438;50.890;4.726;2023-04-06T02:39:49;14.40;;;12.57;;
8803;SDS011;4438;50.890;4.726;2023-04-06T02:42:15;14.80;;;11.43;;
8803;SDS011;4438;50.890;4.726;2023-04-06T02:44:42;14.07;;;10.93;;
8803;SDS011;4438;50.890;4.726;2023-04-06T02:47:08;14.93;;;11.80;;
8803;SDS011;4438;50.890;4.726;2023-04-06T02:49:34;13.80;;;11.50;;
8803;SDS011;4438;50.890;4.726;2023-04-06T02:52:01;14.60;;;11.63;;
8803;SDS011;4438;50.890;4.726;2023-04-06T02:54:27;14.20;;;12.03;;
8803;SDS011;4438;50.890;4.726;2023-04-06T02:56:53;16.47;;;12.40;;
8803;SDS011;4438;50.890;4.726;2023-04-06T02:59:19;16.23;;;11.17;;
8803;SDS011;4438;50.890;4.726;2023-04-06T03:01:45;15.17;;;12.20;;
8803;SDS011;4438;50.890;4.726;2023-04-06T03:04:11;14.60;;;12.07;;
8803;SDS011;4438;50.890;4.726;2023-04-06T03:06:37;15.90;;;12.37;;
8803;SDS011;4438;50.890;4.726;2023-04-06T03:09:03;14.47;;;11.70;;
8803;SDS011;4438;50.890;4.726;2023-04-06T03:11:29;14.80;;;11.93;;
8803;SDS011;4438;50.890;4.726;2023-04-06T03:13:56;14.43;;;11.90;;
8803;SDS011;4438;50.890;4.726;2023-04-06T03:16:22;15.67;;;12.47;;
8803;SDS011;4438;50.890;4.726;2023-04-06T03:18:48;16.13;;;12.03;;
8803;SDS011;4438;50.890;4.726;2023-04-06T03:21:14;15.23;;;12.07;;
8803;SDS011;4438;50.890;4.726;2023-04-06T03:23:40;13.97;;;11.97;;
8803;SDS011;4438;50.890;4.726;2023-04-06T03:26:06;15.40;;;12.33;;
8803;SDS011;4438;50.890;4.726;2023-04-06T03:28:32;14.60;;;11.50;;
8803;SDS011;4438;50.890;4.726;2023-04-06T03:30:58;14.63;;;11.73;;
8803;SDS011;4438;50.890;4.726;2023-04-06T03:33:25;13.17;;;11.10;;
8803;SDS011;4438;50.890;4.726;2023-04-06T03:35:52;14.07;;;11.97;;
8803;SDS011;4438;50.890;4.726;2023-04-06T03:38:18;13.93;;;11.63;;
8803;SDS011;4438;50.890;4.726;2023-04-06T03:40:44;14.17;;;11.83;;
8803;SDS011;4438;50.890;4.726;2023-04-06T03:43:11;16.73;;;12.20;;
8803;SDS011;4438;50.890;4.726;2023-04-06T03:45:37;15.77;;;12.00;;
8803;SDS011;4438;50.890;4.726;2023-04-06T03:48:03;15.70;;;11.53;;
8803;SDS011;4438;50.890;4.726;2023-04-06T03:50:29;13.97;;;11.73;;
8803;SDS011;4438;50.890;4.726;2023-04-06T03:52:55;14.43;;;11.87;;
8803;SDS011;4438;50.890;4.726;2023-04-06T03:55:22;17.63;;;13.30;;
8803;SDS011;4438;50.890;4.726;2023-04-06T03:57:48;15.23;;;12.20;;
8803;SDS011;4438;50.890;4.726;2023-04-06T04:00:14;15.27;;;11.90;;
8803;SDS011;4438;50.890;4.726;2023-04-06T04:02:40;16.57;;;12.53;;
8803;SDS011;4438;50.890;4.726;2023-04-06T04:05:07;13.80;;;11.10;;
8803;SDS011;4438;50.890;4.726;2023-04-06T04:07:33;16.07;;;12.30;;
8803;SDS011;4438;50.890;4.726;2023-04-06T04:09:59;14.63;;;11.77;;
8803;SDS011;4438;50.890;4.726;2023-04-06T04:12:25;12.30;;;10.77;;
8803;SDS011;4438;50.890;4.726;2023-04-06T04:14:51;13.17;;;11.63;;
8803;SDS011;4438;50.890;4.726;2023-04-06T04:17:17;15.23;;;12.03;;
8803;SDS011;4438;50.890;4.726;2023-04-06T04:19:43;13.17;;;11.60;;
8803;SDS011;4438;50.890;4.726;2023-04-06T04:22:09;14.33;;;11.10;;
8803;SDS011;4438;50.890;4.726;2023-04-06T04:24:35;14.30;;;12.00;;
8803;SDS011;4438;50.890;4.726;2023-04-06T04:27:01;16.80;;;12.17;;
8803;SDS011;4438;50.890;4.726;2023-04-06T04:29:28;14.43;;;11.43;;
8803;SDS011;4438;50.890;4.726;2023-04-06T04:31:54;14.03;;;11.87;;
8803;SDS011;4438;50.890;4.726;2023-04-06T04:34:20;17.10;;;12.27;;
8803;SDS011;4438;50.890;4.726;2023-04-06T04:36:49;16.47;;;12.00;;
8803;SDS011;4438;50.890;4.726;2023-04-06T04:39:15;17.47;;;12.07;;
8803;SDS011;4438;50.890;4.726;2023-04-06T04:41:41;17.43;;;12.43;;
8803;SDS011;4438;50.890;4.726;2023-04-06T04:44:07;16.33;;;12.40;;
8803;SDS011;4438;50.890;4.726;2023-04-06T04:46:33;15.10;;;12.07;;
8803;SDS011;4438;50.890;4.726;2023-04-06T04:48:59;14.67;;;11.50;;
8803;SDS011;4438;50.890;4.726;2023-04-06T04:51:25;16.80;;;12.30;;
8803;SDS011;4438;50.890;4.726;2023-04-06T04:53:51;15.47;;;11.80;;
8803;SDS011;4438;50.890;4.726;2023-04-06T04:56:18;12.80;;;11.17;;
8803;SDS011;4438;50.890;4.726;2023-04-06T04:58:44;16.03;;;12.53;;
8803;SDS011;4438;50.890;4.726;2023-04-06T05:01:10;15.90;;;12.23;;
8803;SDS011;4438;50.890;4.726;2023-04-06T05:03:36;18.47;;;12.73;;
8803;SDS011;4438;50.890;4.726;2023-04-06T05:06:04;16.00;;;12.33;;
8803;SDS011;4438;50.890;4.726;2023-04-06T05:08:30;14.37;;;11.43;;
8803;SDS011;4438;50.890;4.726;2023-04-06T05:10:56;14.67;;;12.30;;
8803;SDS011;4438;50.890;4.726;2023-04-06T05:13:22;15.27;;;11.87;;
8803;SDS011;4438;50.890;4.726;2023-04-06T05:15:48;17.90;;;13.40;;
8803;SDS011;4438;50.890;4.726;2023-04-06T05:18:14;15.03;;;11.33;;
8803;SDS011;4438;50.890;4.726;2023-04-06T05:20:41;15.77;;;12.47;;
8803;SDS011;4438;50.890;4.726;2023-04-06T05:23:08;16.03;;;12.07;;
8803;SDS011;4438;50.890;4.726;2023-04-06T05:25:34;14.03;;;11.80;;
8803;SDS011;4438;50.890;4.726;2023-04-06T05:28:00;16.53;;;12.73;;
8803;SDS011;4438;50.890;4.726;2023-04-06T05:30:26;16.97;;;12.57;;
8803;SDS011;4438;50.890;4.726;2023-04-06T05:32:52;16.93;;;12.97;;
8803;SDS011;4438;50.890;4.726;2023-04-06T05:35:18;15.17;;;12.57;;
8803;SDS011;4438;50.890;4.726;2023-04-06T05:37:45;16.83;;;12.40;;
8803;SDS011;4438;50.890;4.726;2023-04-06T05:40:11;15.50;;;12.23;;
8803;SDS011;4438;50.890;4.726;2023-04-06T05:42:38;16.40;;;12.33;;
8803;SDS011;4438;50.890;4.726;2023-04-06T05:45:08;18.67;;;13.23;;
8803;SDS011;4438;50.890;4.726;2023-04-06T05:47:35;20.20;;;12.87;;
8803;SDS011;4438;50.890;4.726;2023-04-06T05:50:02;17.17;;;13.07;;
8803;SDS011;4438;50.890;4.726;2023-04-06T05:52:28;16.93;;;12.73;;
8803;SDS011;4438;50.890;4.726;2023-04-06T05:54:54;17.07;;;12.63;;
8803;SDS011;4438;50.890;4.726;2023-04-06T05:57:20;15.60;;;12.80;;
8803;SDS011;4438;50.890;4.726;2023-04-06T05:59:47;15.67;;;12.10;;
8803;SDS011;4438;50.890;4.726;2023-04-06T06:02:13;15.60;;;12.17;;
8803;SDS011;4438;50.890;4.726;2023-04-06T06:04:39;15.70;;;12.23;;
8803;SDS011;4438;50.890;4.726;2023-04-06T06:07:05;17.63;;;12.27;;
8803;SDS011;4438;50.890;4.726;2023-04-06T06:09:31;17.57;;;11.73;;
8803;SDS011;4438;50.890;4.726;2023-04-06T06:11:57;17.37;;;12.60;;
8803;SDS011;4438;50.890;4.726;2023-04-06T06:14:23;18.37;;;13.63;;
8803;SDS011;4438;50.890;4.726;2023-04-06T06:16:49;15.13;;;12.23;;
8803;SDS011;4438;50.890;4.726;2023-04-06T06:19:15;17.33;;;12.47;;
8803;SDS011;4438;50.890;4.726;2023-04-06T06:21:41;16.73;;;13.13;;
8803;SDS011;4438;50.890;4.726;2023-04-06T06:24:08;17.13;;;12.13;;
8803;SDS011;4438;50.890;4.726;2023-04-06T06:26:34;17.33;;;12.77;;
8803;SDS011;4438;50.890;4.726;2023-04-06T06:29:02;18.20;;;13.13;;
8803;SDS011;4438;50.890;4.726;2023-04-06T06:31:30;18.47;;;13.50;;
8803;SDS011;4438;50.890;4.726;2023-04-06T06:33:56;19.57;;;13.10;;
8803;SDS011;4438;50.890;4.726;2023-04-06T06:36:22;19.67;;;12.70;;
8803;SDS011;4438;50.890;4.726;2023-04-06T06:38:48;15.73;;;12.63;;
8803;SDS011;4438;50.890;4.726;2023-04-06T06:41:15;18.00;;;12.70;;
8803;SDS011;4438;50.890;4.726;2023-04-06T06:43:41;20.70;;;14.30;;
8803;SDS011;4438;50.890;4.726;2023-04-06T06:46:07;17.50;;;12.63;;
8803;SDS011;4438;50.890;4.726;2023-04-06T06:48:33;18.53;;;13.80;;
8803;SDS011;4438;50.890;4.726;2023-04-06T06:51:00;17.10;;;12.73;;
8803;SDS011;4438;50.890;4.726;2023-04-06T06:53:26;16.33;;;12.97;;
8803;SDS011;4438;50.890;4.726;2023-04-06T06:55:52;17.73;;;12.43;;
8803;SDS011;4438;50.890;4.726;2023-04-06T06:58:18;16.73;;;12.43;;
8803;SDS011;4438;50.890;4.726;2023-04-06T07:00:48;18.60;;;13.30;;
8803;SDS011;4438;50.890;4.726;2023-04-06T07:03:14;16.17;;;12.80;;
8803;SDS011;4438;50.890;4.726;2023-04-06T07:05:46;18.30;;;13.20;;
8803;SDS011;4438;50.890;4.726;2023-04-06T07:08:17;18.70;;;13.80;;
8803;SDS011;4438;50.890;4.726;2023-04-06T07:10:43;22.13;;;13.63;;
8803;SDS011;4438;50.890;4.726;2023-04-06T07:13:09;18.80;;;13.30;;
8803;SDS011;4438;50.890;4.726;2023-04-06T07:15:36;17.50;;;13.33;;
8803;SDS011;4438;50.890;4.726;2023-04-06T07:18:02;20.33;;;13.13;;
8803;SDS011;4438;50.890;4.726;2023-04-06T07:20:29;18.37;;;13.03;;
8803;SDS011;4438;50.890;4.726;2023-04-06T07:22:55;18.17;;;13.30;;
8803;SDS011;4438;50.890;4.726;2023-04-06T07:25:21;19.93;;;13.73;;
8803;SDS011;4438;50.890;4.726;2023-04-06T07:27:47;18.30;;;13.90;;
8803;SDS011;4438;50.890;4.726;2023-04-06T07:30:13;18.27;;;13.50;;
8803;SDS011;4438;50.890;4.726;2023-04-06T07:32:39;18.40;;;13.80;;
8803;SDS011;4438;50.890;4.726;2023-04-06T07:35:05;18.97;;;14.00;;
8803;SDS011;4438;50.890;4.726;2023-04-06T07:37:31;19.87;;;13.97;;
8803;SDS011;4438;50.890;4.726;2023-04-06T07:39:57;18.23;;;14.27;;
8803;SDS011;4438;50.890;4.726;2023-04-06T07:42:24;20.87;;;14.10;;
8803;SDS011;4438;50.890;4.726;2023-04-06T07:44:50;19.53;;;14.43;;
8803;SDS011;4438;50.890;4.726;2023-04-06T07:47:16;21.83;;;14.97;;
8803;SDS011;4438;50.890;4.726;2023-04-06T07:49:42;17.73;;;13.83;;
8803;SDS011;4438;50.890;4.726;2023-04-06T07:52:08;18.17;;;14.03;;
8803;SDS011;4438;50.890;4.726;2023-04-06T07:54:34;20.00;;;14.40;;
8803;SDS011;4438;50.890;4.726;2023-04-06T07:57:00;20.77;;;13.73;;
8803;SDS011;4438;50.890;4.726;2023-04-06T07:59:26;18.10;;;14.07;;
8803;SDS011;4438;50.890;4.726;2023-04-06T08:01:52;15.77;;;13.23;;
8803;SDS011;4438;50.890;4.726;2023-04-06T08:04:19;16.10;;;13.60;;
8803;SDS011;4438;50.890;4.726;2023-04-06T08:06:45;18.53;;;14.23;;
8803;SDS011;4438;50.890;4.726;2023-04-06T08:09:11;16.93;;;12.90;;
8803;SDS011;4438;50.890;4.726;2023-04-06T08:11:37;17.60;;;13.47;;
8803;SDS011;4438;50.890;4.726;2023-04-06T08:14:04;17.73;;;13.23;;
8803;SDS011;4438;50.890;4.726;2023-04-06T08:16:30;15.47;;;12.73;;
8803;SDS011;4438;50.890;4.726;2023-04-06T08:18:56;17.77;;;12.60;;
8803;SDS011;4438;50.890;4.726;2023-04-06T08:21:22;16.00;;;13.00;;
8803;SDS011;4438;50.890;4.726;2023-04-06T08:23:48;17.87;;;12.43;;
8803;SDS011;4438;50.890;4.726;2023-04-06T08:26:15;18.13;;;12.73;;
8803;SDS011;4438;50.890;4.726;2023-04-06T08:28:41;15.17;;;12.50;;
8803;SDS011;4438;50.890;4.726;2023-04-06T08:31:07;16.80;;;12.53;;
8803;SDS011;4438;50.890;4.726;2023-04-06T08:33:33;15.73;;;12.07;;
8803;SDS011;4438;50.890;4.726;2023-04-06T08:36:11;14.43;;;11.90;;
8803;SDS011;4438;50.890;4.726;2023-04-06T08:38:38;16.50;;;12.30;;
8803;SDS011;4438;50.890;4.726;2023-04-06T08:41:08;15.53;;;11.93;;
8803;SDS011;4438;50.890;4.726;2023-04-06T08:43:36;16.00;;;11.73;;
8803;SDS011;4438;50.890;4.726;2023-04-06T08:46:07;14.67;;;11.70;;
8803;SDS011;4438;50.890;4.726;2023-04-06T08:48:34;16.53;;;11.30;;
8803;SDS011;4438;50.890;4.726;2023-04-06T08:51:00;13.43;;;11.30;;
8803;SDS011;4438;50.890;4.726;2023-04-06T08:53:26;12.97;;;11.00;;
8803;SDS011;4438;50.890;4.726;2023-04-06T08:55:53;15.37;;;11.07;;
8803;SDS011;4438;50.890;4.726;2023-04-06T08:58:20;13.40;;;10.53;;
8803;SDS011;4438;50.890;4.726;2023-04-06T09:00:47;14.13;;;10.80;;
8803;SDS011;4438;50.890;4.726;2023-04-06T09:03:13;13.80;;;11.07;;
8803;SDS011;4438;50.890;4.726;2023-04-06T09:05:40;14.67;;;11.87;;
8803;SDS011;4438;50.890;4.726;2023-04-06T09:08:06;14.17;;;11.63;;
8803;SDS011;4438;50.890;4.726;2023-04-06T09:10:32;16.07;;;12.17;;
8803;SDS011;4438;50.890;4.726;2023-04-06T09:13:03;13.77;;;11.67;;
8803;SDS011;4438;50.890;4.726;2023-04-06T09:15:29;14.13;;;11.43;;
8803;SDS011;4438;50.890;4.726;2023-04-06T09:17:55;14.73;;;12.17;;
8803;SDS011;4438;50.890;4.726;2023-04-06T09:20:22;13.33;;;10.87;;
8803;SDS011;4438;50.890;4.726;2023-04-06T09:22:50;15.67;;;11.63;;
8803;SDS011;4438;50.890;4.726;2023-04-06T09:25:20;14.37;;;12.07;;
8803;SDS011;4438;50.890;4.726;2023-04-06T09:27:47;16.43;;;11.77;;
8803;SDS011;4438;50.890;4.726;2023-04-06T09:30:15;15.07;;;11.47;;
8803;SDS011;4438;50.890;4.726;2023-04-06T09:32:51;16.07;;;12.60;;
8803;SDS011;4438;50.890;4.726;2023-04-06T09:35:18;14.30;;;12.67;;
8803;SDS011;4438;50.890;4.726;2023-04-06T09:37:46;15.33;;;13.00;;
8803;SDS011;4438;50.890;4.726;2023-04-06T09:40:12;16.00;;;12.90;;
8803;SDS011;4438;50.890;4.726;2023-04-06T09:42:42;15.47;;;12.77;;
8803;SDS011;4438;50.890;4.726;2023-04-06T09:45:08;16.50;;;13.10;;
8803;SDS011;4438;50.890;4.726;2023-04-06T09:47:35;15.53;;;11.97;;
8803;SDS011;4438;50.890;4.726;2023-04-06T09:50:02;16.63;;;12.77;;
8803;SDS011;4438;50.890;4.726;2023-04-06T09:52:32;16.53;;;13.27;;
8803;SDS011;4438;50.890;4.726;2023-04-06T09:54:59;18.57;;;13.80;;
8803;SDS011;4438;50.890;4.726;2023-04-06T10:00:12;16.27;;;12.90;;
8803;SDS011;4438;50.890;4.726;2023-04-06T10:05:13;16.23;;;13.10;;
8803;SDS011;4438;50.890;4.726;2023-04-06T10:07:41;16.50;;;12.73;;
8803;SDS011;4438;50.890;4.726;2023-04-06T10:10:08;17.57;;;13.03;;
8803;SDS011;4438;50.890;4.726;2023-04-06T10:12:36;14.83;;;12.93;;
8803;SDS011;4438;50.890;4.726;2023-04-06T10:15:03;14.50;;;12.47;;
8803;SDS011;4438;50.890;4.726;2023-04-06T10:17:29;15.43;;;12.93;;
8803;SDS011;4438;50.890;4.726;2023-04-06T10:22:45;14.63;;;12.20;;
8803;SDS011;4438;50.890;4.726;2023-04-06T10:25:29;13.23;;;11.40;;
8803;SDS011;4438;50.890;4.726;2023-04-06T10:28:01;14.67;;;12.33;;
8803;SDS011;4438;50.890;4.726;2023-04-06T10:30:27;15.10;;;11.63;;
8803;SDS011;4438;50.890;4.726;2023-04-06T10:32:54;13.63;;;11.80;;
8803;SDS011;4438;50.890;4.726;2023-04-06T10:35:20;12.77;;;10.93;;
8803;SDS011;4438;50.890;4.726;2023-04-06T10:37:47;13.03;;;11.33;;
8803;SDS011;4438;50.890;4.726;2023-04-06T10:40:20;12.93;;;11.30;;
8803;SDS011;4438;50.890;4.726;2023-04-06T10:42:47;14.13;;;11.00;;
8803;SDS011;4438;50.890;4.726;2023-04-06T10:45:23;14.87;;;11.57;;
8803;SDS011;4438;50.890;4.726;2023-04-06T10:47:52;16.23;;;11.93;;
8803;SDS011;4438;50.890;4.726;2023-04-06T10:50:18;14.40;;;11.97;;
8803;SDS011;4438;50.890;4.726;2023-04-06T10:52:45;15.83;;;12.27;;
8803;SDS011;4438;50.890;4.726;2023-04-06T10:55:12;15.17;;;12.50;;
8803;SDS011;4438;50.890;4.726;2023-04-06T10:57:39;15.20;;;11.27;;
8803;SDS011;4438;50.890;4.726;2023-04-06T11:00:06;14.67;;;11.70;;
8803;SDS011;4438;50.890;4.726;2023-04-06T11:02:33;14.90;;;12.27;;
8803;SDS011;4438;50.890;4.726;2023-04-06T11:05:00;12.87;;;11.47;;
8803;SDS011;4438;50.890;4.726;2023-04-06T11:07:27;14.13;;;11.93;;
8803;SDS011;4438;50.890;4.726;2023-04-06T11:09:55;13.67;;;11.63;;
8803;SDS011;4438;50.890;4.726;2023-04-06T11:12:25;14.47;;;11.90;;
8803;SDS011;4438;50.890;4.726;2023-04-06T11:17:33;13.47;;;11.63;;
8803;SDS011;4438;50.890;4.726;2023-04-06T11:19:59;13.50;;;10.87;;
8803;SDS011;4438;50.890;4.726;2023-04-06T11:22:25;14.67;;;13.03;;
8803;SDS011;4438;50.890;4.726;2023-04-06T11:24:52;15.47;;;12.87;;
8803;SDS011;4438;50.890;4.726;2023-04-06T11:27:18;14.30;;;12.80;;
8803;SDS011;4438;50.890;4.726;2023-04-06T11:29:45;12.73;;;11.30;;
8803;SDS011;4438;50.890;4.726;2023-04-06T11:32:11;15.43;;;11.97;;
8803;SDS011;4438;50.890;4.726;2023-04-06T11:34:45;14.63;;;12.17;;
8803;SDS011;4438;50.890;4.726;2023-04-06T11:37:12;15.30;;;12.07;;
8803;SDS011;4438;50.890;4.726;2023-04-06T11:39:48;16.40;;;12.77;;
8803;SDS011;4438;50.890;4.726;2023-04-06T11:42:25;13.63;;;11.87;;
8803;SDS011;4438;50.890;4.726;2023-04-06T11:44:53;13.47;;;11.77;;
8803;SDS011;4438;50.890;4.726;2023-04-06T11:47:20;12.63;;;10.93;;
8803;SDS011;4438;50.890;4.726;2023-04-06T11:49:52;15.63;;;10.80;;
8803;SDS011;4438;50.890;4.726;2023-04-06T11:52:19;12.97;;;10.73;;
8803;SDS011;4438;50.890;4.726;2023-04-06T11:54:46;12.10;;;10.83;;
8803;SDS011;4438;50.890;4.726;2023-04-06T11:57:12;12.07;;;10.60;;
8803;SDS011;4438;50.890;4.726;2023-04-06T11:59:39;12.83;;;11.00;;
8803;SDS011;4438;50.890;4.726;2023-04-06T12:02:05;12.43;;;10.70;;
8803;SDS011;4438;50.890;4.726;2023-04-06T12:04:32;12.43;;;10.57;;
8803;SDS011;4438;50.890;4.726;2023-04-06T12:06:58;12.67;;;10.40;;
8803;SDS011;4438;50.890;4.726;2023-04-06T12:09:24;12.33;;;11.03;;
8803;SDS011;4438;50.890;4.726;2023-04-06T12:11:50;12.57;;;10.87;;
8803;SDS011;4438;50.890;4.726;2023-04-06T12:14:16;13.23;;;10.77;;
8803;SDS011;4438;50.890;4.726;2023-04-06T12:16:42;11.93;;;10.40;;
8803;SDS011;4438;50.890;4.726;2023-04-06T12:19:08;12.57;;;10.73;;
8803;SDS011;4438;50.890;4.726;2023-04-06T12:21:35;13.70;;;10.87;;
8803;SDS011;4438;50.890;4.726;2023-04-06T12:24:02;11.60;;;10.10;;
8803;SDS011;4438;50.890;4.726;2023-04-06T12:26:29;12.50;;;10.87;;
8803;SDS011;4438;50.890;4.726;2023-04-06T12:28:55;12.63;;;10.47;;
8803;SDS011;4438;50.890;4.726;2023-04-06T12:31:21;12.80;;;10.27;;
8803;SDS011;4438;50.890;4.726;2023-04-06T12:33:51;12.63;;;11.33;;
8803;SDS011;4438;50.890;4.726;2023-04-06T12:36:18;15.50;;;11.13;;
8803;SDS011;4438;50.890;4.726;2023-04-06T12:38:46;12.80;;;10.77;;
8803;SDS011;4438;50.890;4.726;2023-04-06T12:41:12;12.93;;;10.57;;
8803;SDS011;4438;50.890;4.726;2023-04-06T12:43:39;13.90;;;11.23;;
8803;SDS011;4438;50.890;4.726;2023-04-06T12:46:05;12.10;;;10.80;;
8803;SDS011;4438;50.890;4.726;2023-04-06T12:48:31;12.67;;;10.30;;
8803;SDS011;4438;50.890;4.726;2023-04-06T12:50:58;11.60;;;9.97;;
8803;SDS011;4438;50.890;4.726;2023-04-06T12:53:24;12.37;;;10.53;;
8803;SDS011;4438;50.890;4.726;2023-04-06T12:55:51;11.53;;;10.33;;
8803;SDS011;4438;50.890;4.726;2023-04-06T12:58:18;12.27;;;10.70;;
8803;SDS011;4438;50.890;4.726;2023-04-06T13:00:45;12.07;;;10.67;;
8803;SDS011;4438;50.890;4.726;2023-04-06T13:03:11;12.07;;;10.60;;
8803;SDS011;4438;50.890;4.726;2023-04-06T13:05:43;15.33;;;11.43;;
8803;SDS011;4438;50.890;4.726;2023-04-06T13:08:10;12.37;;;11.07;;
8803;SDS011;4438;50.890;4.726;2023-04-06T13:10:36;13.30;;;11.83;;
8803;SDS011;4438;50.890;4.726;2023-04-06T13:13:02;13.17;;;11.60;;
8803;SDS011;4438;50.890;4.726;2023-04-06T13:15:28;13.13;;;11.73;;
8803;SDS011;4438;50.890;4.726;2023-04-06T13:17:54;14.77;;;12.17;;
8803;SDS011;4438;50.890;4.726;2023-04-06T13:20:21;15.07;;;11.53;;
8803;SDS011;4438;50.890;4.726;2023-04-06T13:22:50;13.37;;;11.97;;
8803;SDS011;4438;50.890;4.726;2023-04-06T13:25:16;14.97;;;12.13;;
8803;SDS011;4438;50.890;4.726;2023-04-06T13:27:43;14.53;;;12.87;;
8803;SDS011;4438;50.890;4.726;2023-04-06T13:30:13;15.80;;;13.23;;
8803;SDS011;4438;50.890;4.726;2023-04-06T13:32:40;14.60;;;12.77;;
8803;SDS011;4438;50.890;4.726;2023-04-06T13:35:06;16.30;;;13.40;;
8803;SDS011;4438;50.890;4.726;2023-04-06T13:37:33;16.27;;;14.10;;
8803;SDS011;4438;50.890;4.726;2023-04-06T13:40:01;17.30;;;14.00;;
8803;SDS011;4438;50.890;4.726;2023-04-06T13:42:28;16.13;;;13.80;;
8803;SDS011;4438;50.890;4.726;2023-04-06T13:44:54;15.80;;;14.07;;
8803;SDS011;4438;50.890;4.726;2023-04-06T13:47:20;17.33;;;14.33;;
8803;SDS011;4438;50.890;4.726;2023-04-06T13:49:47;17.10;;;14.40;;
8803;SDS011;4438;50.890;4.726;2023-04-06T13:52:13;17.63;;;15.07;;
8803;SDS011;4438;50.890;4.726;2023-04-06T13:54:39;16.03;;;13.73;;
8803;SDS011;4438;50.890;4.726;2023-04-06T13:57:05;16.80;;;14.97;;
8803;SDS011;4438;50.890;4.726;2023-04-06T13:59:35;16.97;;;13.77;;
8803;SDS011;4438;50.890;4.726;2023-04-06T14:02:02;17.53;;;14.00;;
8803;SDS011;4438;50.890;4.726;2023-04-06T14:04:29;18.27;;;14.60;;
8803;SDS011;4438;50.890;4.726;2023-04-06T14:06:55;15.90;;;13.40;;
8803;SDS011;4438;50.890;4.726;2023-04-06T14:09:21;17.00;;;14.70;;
8803;SDS011;4438;50.890;4.726;2023-04-06T14:11:48;16.80;;;14.27;;
8803;SDS011;4438;50.890;4.726;2023-04-06T14:14:14;17.37;;;14.13;;
8803;SDS011;4438;50.890;4.726;2023-04-06T14:16:40;19.33;;;14.53;;
8803;SDS011;4438;50.890;4.726;2023-04-06T14:19:09;15.37;;;13.70;;
8803;SDS011;4438;50.890;4.726;2023-04-06T14:21:40;17.60;;;14.07;;
8803;SDS011;4438;50.890;4.726;2023-04-06T14:24:09;17.23;;;13.57;;
8803;SDS011;4438;50.890;4.726;2023-04-06T14:26:35;16.90;;;14.23;;
8803;SDS011;4438;50.890;4.726;2023-04-06T14:29:02;17.30;;;13.77;;
8803;SDS011;4438;50.890;4.726;2023-04-06T14:31:29;17.87;;;14.17;;
8803;SDS011;4438;50.890;4.726;2023-04-06T14:33:55;16.43;;;14.73;;
8803;SDS011;4438;50.890;4.726;2023-04-06T14:36:22;17.70;;;14.73;;
8803;SDS011;4438;50.890;4.726;2023-04-06T14:38:48;17.20;;;14.63;;
8803;SDS011;4438;50.890;4.726;2023-04-06T14:41:18;16.57;;;14.20;;
8803;SDS011;4438;50.890;4.726;2023-04-06T14:43:45;16.27;;;13.20;;
8803;SDS011;4438;50.890;4.726;2023-04-06T14:46:11;15.90;;;14.20;;
8803;SDS011;4438;50.890;4.726;2023-04-06T14:48:37;18.23;;;14.20;;
8803;SDS011;4438;50.890;4.726;2023-04-06T14:51:03;15.70;;;14.00;;
8803;SDS011;4438;50.890;4.726;2023-04-06T14:53:29;15.87;;;14.17;;
8803;SDS011;4438;50.890;4.726;2023-04-06T14:55:56;16.97;;;14.30;;